createdAt,value
2023-02-06T00:01:47.923Z,-5.00
2023-02-06T00:04:15.266Z,-5.01
2023-02-06T00:06:42.593Z,-5.13
2023-02-06T00:09:09.575Z,-5.12
2023-02-06T00:11:36.418Z,-5.16
2023-02-06T00:14:03.495Z,-5.21
2023-02-06T00:16:32.540Z,-5.35
2023-02-06T00:18:59.651Z,-5.35
2023-02-06T00:21:27.386Z,-5.26
2023-02-06T00:23:56.227Z,-5.33
2023-02-06T00:26:23.995Z,-5.38
2023-02-06T00:28:50.768Z,-5.34
2023-02-06T00:31:17.594Z,-5.27
2023-02-06T00:33:44.267Z,-5.24
2023-02-06T00:36:11.033Z,-5.21
2023-02-06T00:38:38.144Z,-5.40
2023-02-06T00:41:05.144Z,-5.37
2023-02-06T00:43:31.916Z,-5.28
2023-02-06T00:45:58.790Z,-5.26
2023-02-06T00:48:25.942Z,-5.35
2023-02-06T00:50:53.627Z,-5.39
2023-02-06T00:53:21.092Z,-5.40
2023-02-06T00:55:47.812Z,-5.44
2023-02-06T00:58:14.515Z,-5.43
2023-02-06T01:00:41.215Z,-5.39
2023-02-06T01:03:07.971Z,-5.37
2023-02-06T01:05:35.042Z,-5.60
2023-02-06T01:08:04.316Z,-5.78
2023-02-06T01:10:31.405Z,-5.90
2023-02-06T01:12:58.474Z,-5.87
2023-02-06T01:15:25.359Z,-6.03
2023-02-06T01:17:52.184Z,-6.04
2023-02-06T01:20:19.098Z,-6.13
2023-02-06T01:22:45.834Z,-6.08
2023-02-06T01:25:12.517Z,-6.11
2023-02-06T01:27:39.613Z,-6.15
2023-02-06T01:30:07.356Z,-6.09
2023-02-06T01:32:41.454Z,-5.95
2023-02-06T01:35:09.397Z,-6.06
2023-02-06T01:37:39.018Z,-6.17
2023-02-06T01:40:08.259Z,-6.11
2023-02-06T01:42:37.033Z,-6.15
2023-02-06T01:45:21.752Z,-6.24
2023-02-06T01:47:49.821Z,-6.24
2023-02-06T01:50:16.598Z,-6.28
2023-02-06T01:52:43.304Z,-6.46
2023-02-06T01:55:10.070Z,-6.59
2023-02-06T01:57:36.859Z,-6.65
2023-02-06T02:00:08.346Z,-6.55
2023-02-06T02:02:35.943Z,-6.72
2023-02-06T02:05:03.308Z,-6.61
2023-02-06T02:07:36.050Z,-6.57
2023-02-06T02:10:03.863Z,-6.42
2023-02-06T02:12:30.650Z,-6.41
2023-02-06T02:14:57.951Z,-6.46
2023-02-06T02:17:48.236Z,-6.45
2023-02-06T02:20:36.842Z,-6.41
2023-02-06T02:23:24.531Z,-6.39
2023-02-06T02:26:18.473Z,-6.25
2023-02-06T02:29:18.877Z,-6.26
2023-02-06T02:32:07.046Z,-6.38
2023-02-06T02:35:00.015Z,-6.52
2023-02-06T02:37:41.868Z,-6.52
2023-02-06T02:40:46.053Z,-6.72
2023-02-06T02:43:30.099Z,-6.88
2023-02-06T02:46:09.941Z,-7.07
2023-02-06T02:48:40.197Z,-6.99
2023-02-06T02:51:07.571Z,-6.99
2023-02-06T02:53:34.173Z,-6.96
2023-02-06T02:56:01.051Z,-6.84
2023-02-06T02:58:30.827Z,-6.86
2023-02-06T03:01:04.399Z,-6.88
2023-02-06T03:03:32.601Z,-6.90
2023-02-06T03:06:19.452Z,-7.05
2023-02-06T03:08:55.429Z,-7.14
2023-02-06T03:11:22.521Z,-7.13
2023-02-06T03:13:58.069Z,-7.36
2023-02-06T03:16:39.188Z,-7.31
2023-02-06T03:19:12.169Z,-7.20
2023-02-06T03:21:39.712Z,-7.27
2023-02-06T03:24:11.130Z,-7.29
2023-02-06T03:26:38.190Z,-7.29
2023-02-06T03:29:08.748Z,-7.29
2023-02-06T03:31:40.127Z,-7.13
2023-02-06T03:34:17.014Z,-7.11
2023-02-06T03:36:43.821Z,-7.07
2023-02-06T03:39:10.839Z,-7.03
2023-02-06T03:41:38.570Z,-7.23
2023-02-06T03:44:10.661Z,-7.35
2023-02-06T03:46:37.825Z,-7.27
2023-02-06T03:49:07.395Z,-7.21
2023-02-06T03:51:38.388Z,-7.14
2023-02-06T03:54:06.315Z,-7.05
2023-02-06T03:56:40.533Z,-7.22
2023-02-06T03:59:07.313Z,-7.38
2023-02-06T04:01:34.089Z,-7.44
2023-02-06T04:04:00.927Z,-7.58
2023-02-06T04:06:27.755Z,-7.82
2023-02-06T04:08:54.468Z,-7.75
2023-02-06T04:11:21.154Z,-7.81
2023-02-06T04:13:47.886Z,-7.60
2023-02-06T04:16:14.718Z,-7.63
2023-02-06T04:18:41.384Z,-7.63
2023-02-06T04:21:08.743Z,-7.73
2023-02-06T04:23:35.786Z,-7.86
2023-02-06T04:26:02.535Z,-7.79
2023-02-06T04:28:29.289Z,-7.70
2023-02-06T04:30:56.170Z,-7.66
2023-02-06T04:33:23.127Z,-7.58
2023-02-06T04:35:49.911Z,-7.62
2023-02-06T04:38:16.889Z,-7.55
2023-02-06T04:40:43.894Z,-7.49
2023-02-06T04:43:10.616Z,-7.53
2023-02-06T04:45:37.658Z,-7.74
2023-02-06T04:48:04.666Z,-7.92
2023-02-06T04:50:32.101Z,-8.03
2023-02-06T04:52:58.934Z,-8.01
2023-02-06T04:55:25.694Z,-7.96
2023-02-06T04:57:52.414Z,-7.95
2023-02-06T05:00:19.187Z,-8.02
2023-02-06T05:02:45.933Z,-8.18
2023-02-06T05:05:12.703Z,-8.37
2023-02-06T05:07:39.502Z,-8.35
2023-02-06T05:10:06.620Z,-8.33
2023-02-06T05:12:33.393Z,-8.32
2023-02-06T05:15:00.161Z,-8.24
2023-02-06T05:17:26.720Z,-7.96
2023-02-06T05:19:53.412Z,-7.94
2023-02-06T05:22:19.991Z,-7.90
2023-02-06T05:24:46.604Z,-7.99
2023-02-06T05:27:13.224Z,-7.95
2023-02-06T05:29:39.801Z,-8.08
2023-02-06T05:32:06.786Z,-8.35
2023-02-06T05:34:33.377Z,-8.28
2023-02-06T05:37:00.013Z,-8.33
2023-02-06T05:39:26.671Z,-8.31
2023-02-06T05:41:53.331Z,-8.27
2023-02-06T05:44:19.909Z,-8.29
2023-02-06T05:46:48.429Z,-8.27
2023-02-06T05:49:15.533Z,-8.36
2023-02-06T05:51:42.163Z,-8.40
2023-02-06T05:54:08.896Z,-8.51
2023-02-06T05:56:35.607Z,-8.59
2023-02-06T05:59:02.311Z,-8.59
2023-02-06T06:01:29.319Z,-8.46
2023-02-06T06:03:56.660Z,-8.27
2023-02-06T06:06:23.454Z,-8.27
2023-02-06T06:08:50.176Z,-8.21
2023-02-06T06:11:17.086Z,-8.26
2023-02-06T06:13:43.872Z,-8.59
2023-02-06T06:16:10.650Z,-8.83
2023-02-06T06:18:37.347Z,-8.76
2023-02-06T06:21:04.256Z,-8.76
2023-02-06T06:23:31.095Z,-8.72
2023-02-06T06:25:57.877Z,-8.71
2023-02-06T06:28:24.617Z,-8.96
2023-02-06T06:30:51.364Z,-8.80
2023-02-06T06:33:18.092Z,-8.85
2023-02-06T06:35:44.819Z,-8.83
2023-02-06T06:38:11.473Z,-8.85
2023-02-06T06:40:39.966Z,-8.76
2023-02-06T06:43:06.622Z,-8.83
2023-02-06T06:45:33.331Z,-8.77
2023-02-06T06:48:00.144Z,-8.82
2023-02-06T06:50:27.005Z,-8.56
2023-02-06T06:52:53.847Z,-8.61
2023-02-06T06:55:20.677Z,-8.51
2023-02-06T06:57:47.630Z,-8.42
2023-02-06T07:00:15.727Z,-8.26
2023-02-06T07:02:43.013Z,-7.98
2023-02-06T07:05:10.044Z,-7.46
2023-02-06T07:07:37.592Z,-6.89
2023-02-06T07:10:04.532Z,-6.25
2023-02-06T07:12:32.534Z,-5.49
2023-02-06T07:14:59.225Z,-5.10
2023-02-06T07:17:25.936Z,-4.90
2023-02-06T07:19:52.671Z,-4.86
2023-02-06T07:22:20.329Z,-4.03
2023-02-06T07:24:47.164Z,-3.61
2023-02-06T07:27:13.963Z,-3.68
2023-02-06T07:29:40.695Z,-3.85
2023-02-06T07:32:07.892Z,-4.83
2023-02-06T07:34:35.333Z,-6.08
2023-02-06T07:37:02.555Z,-5.72
2023-02-06T07:39:29.473Z,-5.48
2023-02-06T07:41:56.215Z,-5.49
2023-02-06T07:44:22.894Z,-5.30
2023-02-06T07:46:49.792Z,-5.24
2023-02-06T07:49:16.580Z,-5.47
2023-02-06T07:51:43.951Z,-5.62
2023-02-06T07:54:12.052Z,-5.74
2023-02-06T07:56:38.934Z,-5.91
2023-02-06T07:59:06.443Z,-5.77
2023-02-06T08:01:33.296Z,-5.39
2023-02-06T08:04:00.137Z,-5.13
2023-02-06T08:06:27.134Z,-5.34
2023-02-06T08:08:57.350Z,-5.11
2023-02-06T08:11:30.281Z,-5.47
2023-02-06T08:13:57.462Z,-5.55
2023-02-06T08:16:25.093Z,-5.40
2023-02-06T08:18:52.048Z,-5.09
2023-02-06T08:21:22.085Z,-4.40
2023-02-06T08:23:54.926Z,-4.01
2023-02-06T08:26:22.156Z,-4.12
2023-02-06T08:28:50.194Z,-3.89
2023-02-06T08:31:26.159Z,-2.82
2023-02-06T08:33:53.086Z,-2.17
2023-02-06T08:36:21.347Z,-3.25
2023-02-06T08:38:48.472Z,-4.15
2023-02-06T08:41:22.186Z,-4.31
2023-02-06T08:43:50.253Z,-4.25
2023-02-06T08:46:18.876Z,-4.27
2023-02-06T08:48:45.975Z,-4.08
2023-02-06T08:51:13.735Z,-4.05
2023-02-06T08:53:40.442Z,-3.75
2023-02-06T08:56:09.351Z,-3.61
2023-02-06T08:58:36.960Z,-3.39
2023-02-06T09:01:13.901Z,-3.50
2023-02-06T09:03:41.939Z,-3.56
2023-02-06T09:06:10.500Z,-3.73
2023-02-06T09:08:38.545Z,-3.48
2023-02-06T09:11:09.714Z,-3.29
2023-02-06T09:13:36.520Z,-3.17
2023-02-06T09:16:03.456Z,-3.09
2023-02-06T09:18:30.437Z,-2.46
2023-02-06T09:21:07.389Z,-2.14
2023-02-06T09:23:34.674Z,-2.24
2023-02-06T09:26:01.511Z,-2.26
2023-02-06T09:28:28.163Z,-2.35
2023-02-06T09:30:55.886Z,-1.91
2023-02-06T09:33:23.048Z,-2.62
2023-02-06T09:35:49.779Z,-2.20
2023-02-06T09:38:16.530Z,-0.98
2023-02-06T09:40:43.287Z,-1.20
2023-02-06T09:43:11.630Z,-1.57
2023-02-06T09:45:39.904Z,-1.42
2023-02-06T09:48:19.265Z,-2.08
2023-02-06T09:50:52.011Z,-1.44
2023-02-06T09:53:30.156Z,-1.24
2023-02-06T09:56:26.226Z,-0.92
2023-02-06T09:59:14.533Z,-1.32
2023-02-06T10:02:05.757Z,-1.59
2023-02-06T10:04:42.846Z,-2.12
2023-02-06T10:07:27.890Z,-1.83
2023-02-06T10:09:59.687Z,-1.16
2023-02-06T10:12:36.005Z,-1.47
2023-02-06T10:15:32.578Z,-1.20
2023-02-06T10:18:09.549Z,-1.19
2023-02-06T10:20:41.188Z,-1.06
2023-02-06T10:23:16.651Z,-0.94
2023-02-06T10:25:51.766Z,-1.42
2023-02-06T10:28:22.942Z,-0.73
2023-02-06T10:31:11.148Z,-0.76
2023-02-06T10:33:40.701Z,-0.15
2023-02-06T10:36:26.374Z,-0.23
2023-02-06T10:39:14.873Z,-0.50
2023-02-06T10:42:06.463Z,-0.45
2023-02-06T10:44:39.093Z,-0.74
2023-02-06T10:47:21.314Z,-1.19
2023-02-06T10:49:52.764Z,-1.40
2023-02-06T10:52:27.666Z,-1.09
2023-02-06T10:54:57.607Z,-1.05
2023-02-06T10:57:28.574Z,-1.24
2023-02-06T10:59:59.963Z,-1.52
2023-02-06T11:03:06.612Z,-0.99
2023-02-06T11:05:35.327Z,-1.19
2023-02-06T11:08:31.966Z,-1.02
2023-02-06T11:10:58.759Z,-1.21
2023-02-06T11:13:33.596Z,-1.23
2023-02-06T11:16:08.419Z,-1.35
2023-02-06T11:18:39.309Z,-0.83
2023-02-06T11:21:08.065Z,-0.50
2023-02-06T11:23:35.203Z,-0.27
2023-02-06T11:26:09.226Z,-0.23
2023-02-06T11:28:38.764Z,-0.09
2023-02-06T11:31:07.531Z,-0.32
2023-02-06T11:33:46.152Z,-0.09
2023-02-06T11:36:23.294Z,-0.23
2023-02-06T11:39:20.374Z,-0.25
2023-02-06T11:42:19.708Z,-0.30
2023-02-06T11:44:50.782Z,0.41
2023-02-06T11:47:29.968Z,0.72
2023-02-06T11:50:00.783Z,0.53
2023-02-06T11:52:30.262Z,0.50
2023-02-06T11:55:01.869Z,0.84
2023-02-06T11:57:32.074Z,0.58
2023-02-06T12:00:02.083Z,0.31
2023-02-06T12:02:34.354Z,0.77
2023-02-06T12:05:14.501Z,1.41
2023-02-06T12:08:03.722Z,1.82
2023-02-06T12:10:34.956Z,2.04
2023-02-06T12:13:07.960Z,1.22
2023-02-06T12:15:50.174Z,0.94
2023-02-06T12:18:21.045Z,1.34
2023-02-06T12:20:59.842Z,1.33
2023-02-06T12:23:28.961Z,1.56
2023-02-06T12:25:58.231Z,1.93
2023-02-06T12:28:33.025Z,1.59
2023-02-06T12:31:20.299Z,1.72
2023-02-06T12:33:54.703Z,1.71
2023-02-06T12:36:27.680Z,2.12
2023-02-06T12:38:59.326Z,1.93
2023-02-06T12:41:32.161Z,2.30
2023-02-06T12:44:04.002Z,2.21
2023-02-06T12:46:31.149Z,1.33
2023-02-06T12:49:15.851Z,1.51
2023-02-06T12:52:02.125Z,1.45
2023-02-06T12:54:33.702Z,1.51
2023-02-06T12:57:19.748Z,1.77
2023-02-06T13:00:05.532Z,1.78
2023-02-06T13:02:57.057Z,1.75
2023-02-06T13:05:41.832Z,1.67
2023-02-06T13:08:15.691Z,1.85
2023-02-06T13:10:43.250Z,2.15
2023-02-06T13:13:27.091Z,2.08
2023-02-06T13:15:55.298Z,2.02
2023-02-06T13:18:50.608Z,1.95
2023-02-06T13:21:30.079Z,1.74
2023-02-06T13:24:02.883Z,2.09
2023-02-06T13:26:55.600Z,1.85
2023-02-06T13:29:58.024Z,1.59
2023-02-06T13:32:31.364Z,1.76
2023-02-06T13:35:13.073Z,1.78
2023-02-06T13:37:48.275Z,1.76
2023-02-06T13:40:18.229Z,1.80
2023-02-06T13:43:07.723Z,1.69
2023-02-06T13:45:38.514Z,1.53
2023-02-06T13:48:23.734Z,1.81
2023-02-06T13:51:08.818Z,1.50
2023-02-06T13:53:57.539Z,1.63
2023-02-06T13:56:33.360Z,1.46
2023-02-06T13:59:06.131Z,1.51
2023-02-06T14:01:33.773Z,1.42
2023-02-06T14:04:01.428Z,1.35
2023-02-06T14:06:48.880Z,1.36
2023-02-06T14:09:30.752Z,1.29
2023-02-06T14:12:19.863Z,1.18
2023-02-06T14:15:08.304Z,1.09
2023-02-06T14:17:51.760Z,0.82
2023-02-06T14:20:37.140Z,1.01
2023-02-06T14:23:14.329Z,1.26
2023-02-06T14:26:03.554Z,1.40
2023-02-06T14:28:51.307Z,1.23
2023-02-06T14:31:29.734Z,1.32
2023-02-06T14:34:19.962Z,1.21
2023-02-06T14:37:10.259Z,1.05
2023-02-06T14:39:52.286Z,0.78
2023-02-06T14:42:40.291Z,0.65
2023-02-06T14:45:14.888Z,0.55
2023-02-06T14:47:43.242Z,0.43
2023-02-06T14:50:27.799Z,0.23
2023-02-06T14:53:02.155Z,0.54
2023-02-06T14:55:31.159Z,0.43
2023-02-06T14:57:59.737Z,0.16
2023-02-06T15:00:27.488Z,0.43
2023-02-06T15:03:29.579Z,0.46
2023-02-06T15:06:08.143Z,0.29
2023-02-06T15:08:34.952Z,0.10
2023-02-06T15:11:07.092Z,0.41
2023-02-06T15:13:35.249Z,0.55
2023-02-06T15:16:08.010Z,0.50
2023-02-06T15:18:35.701Z,0.52
2023-02-06T15:21:05.174Z,0.58
2023-02-06T15:23:40.963Z,0.37
2023-02-06T15:26:38.037Z,0.40
2023-02-06T15:29:06.264Z,0.52
2023-02-06T15:31:33.046Z,0.34
2023-02-06T15:34:01.250Z,0.11
2023-02-06T15:36:36.898Z,0.06
2023-02-06T15:39:06.193Z,-0.09
2023-02-06T15:41:32.997Z,-0.03
2023-02-06T15:44:02.832Z,-0.44
2023-02-06T15:46:30.615Z,-0.62
2023-02-06T15:48:58.479Z,-0.67
2023-02-06T15:51:30.938Z,-0.61
2023-02-06T15:54:28.935Z,-0.57
2023-02-06T15:57:23.615Z,-0.64
2023-02-06T15:59:50.434Z,-0.62
2023-02-06T16:02:31.137Z,-0.78
2023-02-06T16:04:58.005Z,-1.11
2023-02-06T16:07:27.618Z,-1.06
2023-02-06T16:10:23.733Z,-0.95
2023-02-06T16:12:50.917Z,-1.09
2023-02-06T16:15:33.484Z,-1.10
2023-02-06T16:18:02.357Z,-1.29
2023-02-06T16:20:29.074Z,-1.31
2023-02-06T16:23:17.972Z,-0.84
2023-02-06T16:25:46.166Z,-0.93
2023-02-06T16:28:25.885Z,-0.75
2023-02-06T16:30:58.670Z,-0.79
2023-02-06T16:33:38.308Z,-0.86
2023-02-06T16:36:05.701Z,-1.00
2023-02-06T16:38:32.523Z,-1.36
2023-02-06T16:40:59.296Z,-1.53
2023-02-06T16:43:27.682Z,-1.66
2023-02-06T16:45:54.515Z,-1.62
2023-02-06T16:48:21.374Z,-1.69
2023-02-06T16:50:48.660Z,-1.72
2023-02-06T16:53:22.137Z,-1.83
2023-02-06T16:55:49.741Z,-1.83
2023-02-06T16:58:21.795Z,-1.63
2023-02-06T17:00:49.086Z,-1.87
2023-02-06T17:03:17.724Z,-1.84
2023-02-06T17:05:46.766Z,-1.92
2023-02-06T17:08:23.848Z,-1.95
2023-02-06T17:10:51.100Z,-2.05
2023-02-06T17:13:21.116Z,-2.21
2023-02-06T17:15:49.041Z,-2.38
2023-02-06T17:18:17.679Z,-2.06
2023-02-06T17:20:47.226Z,-1.86
2023-02-06T17:23:14.558Z,-1.89
2023-02-06T17:25:43.629Z,-1.73
2023-02-06T17:28:13.642Z,-1.79
2023-02-06T17:30:41.412Z,-2.17
2023-02-06T17:33:08.721Z,-2.26
2023-02-06T17:35:39.335Z,-2.48
2023-02-06T17:38:07.900Z,-2.60
2023-02-06T17:40:36.508Z,-2.88
2023-02-06T17:43:04.852Z,-2.83
2023-02-06T17:45:32.105Z,-2.65
2023-02-06T17:47:58.843Z,-2.65
2023-02-06T17:50:27.433Z,-2.76
2023-02-06T17:52:55.905Z,-2.91
2023-02-06T17:55:23.756Z,-2.90
2023-02-06T17:57:51.090Z,-3.25
2023-02-06T18:00:19.490Z,-3.27
2023-02-06T18:02:46.440Z,-3.19
2023-02-06T18:05:13.555Z,-3.39
2023-02-06T18:07:40.673Z,-3.21
2023-02-06T18:10:08.056Z,-3.17
2023-02-06T18:12:35.185Z,-3.27
2023-02-06T18:15:02.179Z,-3.37
2023-02-06T18:17:28.903Z,-3.45
2023-02-06T18:19:55.722Z,-3.52
2023-02-06T18:22:22.736Z,-3.61
2023-02-06T18:24:50.647Z,-3.64
2023-02-06T18:27:18.144Z,-3.72
2023-02-06T18:29:50.018Z,-3.79
2023-02-06T18:32:18.279Z,-3.73
2023-02-06T18:34:45.654Z,-3.81
2023-02-06T18:37:12.716Z,-3.85
2023-02-06T18:39:39.663Z,-3.93
2023-02-06T18:42:25.080Z,-3.91
2023-02-06T18:44:51.811Z,-4.32
2023-02-06T18:47:19.127Z,-4.33
2023-02-06T18:49:46.123Z,-4.17
2023-02-06T18:52:13.058Z,-4.07
2023-02-06T18:54:39.842Z,-4.04
2023-02-06T18:57:07.285Z,-4.15
2023-02-06T18:59:34.925Z,-4.29
2023-02-06T19:02:02.595Z,-4.24
2023-02-06T19:04:30.114Z,-4.21
2023-02-06T19:06:56.787Z,-4.20
2023-02-06T19:09:23.662Z,-4.19
2023-02-06T19:11:50.409Z,-4.20
2023-02-06T19:14:18.384Z,-4.21
2023-02-06T19:16:49.584Z,-4.33
2023-02-06T19:19:17.024Z,-4.34
2023-02-06T19:21:44.173Z,-4.36
2023-02-06T19:24:13.626Z,-4.42
2023-02-06T19:26:41.302Z,-4.44
2023-02-06T19:29:08.610Z,-4.49
2023-02-06T19:31:39.222Z,-4.45
2023-02-06T19:34:07.457Z,-4.53
2023-02-06T19:36:35.272Z,-4.71
2023-02-06T19:39:05.173Z,-4.67
2023-02-06T19:41:33.317Z,-4.57
2023-02-06T19:44:09.350Z,-4.75
2023-02-06T19:46:38.578Z,-4.80
2023-02-06T19:49:08.672Z,-4.85
2023-02-06T19:51:38.320Z,-4.98
2023-02-06T19:54:05.314Z,-5.05
2023-02-06T19:56:37.710Z,-5.19
2023-02-06T19:59:08.057Z,-5.16
2023-02-06T20:01:35.934Z,-5.07
2023-02-06T20:04:03.204Z,-4.93
2023-02-06T20:06:35.036Z,-5.04
2023-02-06T20:09:03.826Z,-5.28
2023-02-06T20:11:32.090Z,-5.16
2023-02-06T20:13:58.999Z,-5.13
2023-02-06T20:16:28.333Z,-4.98
2023-02-06T20:18:55.860Z,-4.96
2023-02-06T20:21:29.365Z,-4.88
2023-02-06T20:23:58.776Z,-5.00
2023-02-06T20:26:27.942Z,-5.14
2023-02-06T20:28:55.198Z,-5.28
2023-02-06T20:31:22.726Z,-5.15
2023-02-06T20:33:49.683Z,-5.10
2023-02-06T20:36:21.882Z,-5.10
2023-02-06T20:38:50.144Z,-5.00
2023-02-06T20:41:17.260Z,-5.00
2023-02-06T20:43:47.813Z,-4.95
2023-02-06T20:46:17.432Z,-4.98
2023-02-06T20:48:46.017Z,-5.12
2023-02-06T20:51:14.188Z,-5.20
2023-02-06T20:53:41.021Z,-5.27
2023-02-06T20:56:12.683Z,-5.30
2023-02-06T20:58:39.444Z,-5.25
2023-02-06T21:01:31.658Z,-5.47
2023-02-06T21:04:04.768Z,-5.45
2023-02-06T21:06:31.851Z,-5.42
2023-02-06T21:09:01.061Z,-5.52
2023-02-06T21:11:30.261Z,-5.58
2023-02-06T21:13:58.572Z,-5.61
2023-02-06T21:16:27.095Z,-5.66
2023-02-06T21:18:54.576Z,-5.66
2023-02-06T21:21:21.563Z,-5.63
2023-02-06T21:23:48.693Z,-5.63
2023-02-06T21:26:18.005Z,-5.56
2023-02-06T21:28:46.296Z,-5.77
2023-02-06T21:31:19.284Z,-5.88
2023-02-06T21:33:46.773Z,-5.91
2023-02-06T21:36:13.904Z,-5.98
2023-02-06T21:38:41.265Z,-5.93
2023-02-06T21:41:10.481Z,-5.90
2023-02-06T21:43:37.277Z,-5.84
2023-02-06T21:46:04.730Z,-5.89
2023-02-06T21:48:32.534Z,-5.93
2023-02-06T21:50:59.214Z,-6.08
2023-02-06T21:53:25.819Z,-6.25
2023-02-06T21:55:52.463Z,-6.11
2023-02-06T21:58:19.168Z,-6.09
2023-02-06T22:00:47.649Z,-6.04
2023-02-06T22:03:14.716Z,-6.11
2023-02-06T22:05:41.426Z,-6.03
2023-02-06T22:08:08.129Z,-5.92
2023-02-06T22:10:37.057Z,-5.95
2023-02-06T22:13:04.978Z,-6.03
2023-02-06T22:15:32.811Z,-6.28
2023-02-06T22:17:59.540Z,-6.57
2023-02-06T22:20:26.255Z,-6.55
2023-02-06T22:22:54.228Z,-6.72
2023-02-06T22:25:21.052Z,-6.60
2023-02-06T22:27:47.780Z,-6.57
2023-02-06T22:30:14.505Z,-6.50
2023-02-06T22:32:42.103Z,-6.58
2023-02-06T22:35:09.110Z,-6.54
2023-02-06T22:37:35.840Z,-6.57
2023-02-06T22:40:02.442Z,-6.66
2023-02-06T22:42:29.138Z,-6.78
2023-02-06T22:44:55.902Z,-6.84
2023-02-06T22:47:22.530Z,-6.90
2023-02-06T22:49:52.175Z,-6.96
2023-02-06T22:52:37.352Z,-6.93
2023-02-06T22:55:05.910Z,-7.17
2023-02-06T22:57:35.239Z,-7.30
2023-02-06T23:00:01.941Z,-7.16
2023-02-06T23:02:28.529Z,-7.28
2023-02-06T23:04:55.163Z,-7.48
2023-02-06T23:07:21.790Z,-7.61
2023-02-06T23:09:48.435Z,-7.54
2023-02-06T23:12:16.276Z,-7.43
2023-02-06T23:14:43.286Z,-7.50
2023-02-06T23:17:11.115Z,-7.46
2023-02-06T23:19:39.294Z,-7.57
2023-02-06T23:22:06.256Z,-7.30
2023-02-06T23:24:32.846Z,-7.20
2023-02-06T23:26:59.461Z,-7.29
2023-02-06T23:29:26.163Z,-7.43
2023-02-06T23:31:53.009Z,-7.57
2023-02-06T23:34:23.753Z,-7.41
2023-02-06T23:36:51.965Z,-7.39
2023-02-06T23:39:18.881Z,-7.52
2023-02-06T23:41:45.492Z,-7.43
2023-02-06T23:44:12.400Z,-7.41
2023-02-06T23:46:40.205Z,-7.57
2023-02-06T23:49:07.155Z,-7.51
2023-02-06T23:51:35.122Z,-7.59
2023-02-06T23:54:02.044Z,-7.50
2023-02-06T23:56:30.027Z,-7.53
2023-02-06T23:58:58.467Z,-7.65
